sensor_id;sensor_type;location;lat;lon;timestamp;pressure;altitude;pressure_sealevel;temperature;humidity
7337;BME280;54510;42.016;23.098;2023-07-31T00:01:52;-21870.59;;;26.99;65.51
7337;BME280;54510;42.016;23.098;2023-07-31T00:04:17;-21874.41;;;27.13;65.37
7337;BME280;54510;42.016;23.098;2023-07-31T00:06:43;-21880.50;;;27.36;64.84
7337;BME280;54510;42.016;23.098;2023-07-31T00:09:08;-21881.06;;;27.38;64.71
7337;BME280;54510;42.016;23.098;2023-07-31T00:11:34;-21878.63;;;27.29;63.71
7337;BME280;54510;42.016;23.098;2023-07-31T00:13:59;-21875.75;;;27.18;64.92
7337;BME280;54510;42.016;23.098;2023-07-31T00:16:25;-21869.66;;;26.95;63.38
7337;BME280;54510;42.016;23.098;2023-07-31T00:18:51;-21877.25;;;27.24;63.59
7337;BME280;54510;42.016;23.098;2023-07-31T00:21:16;-21882.41;;;27.43;64.21
7337;BME280;54510;42.016;23.098;2023-07-31T00:23:41;-21888.94;;;27.67;62.95
7337;BME280;54510;42.016;23.098;2023-07-31T00:26:07;-21886.47;;;27.58;62.89
7337;BME280;54510;42.016;23.098;2023-07-31T00:28:32;-21880.50;;;27.36;61.38
7337;BME280;54510;42.016;23.098;2023-07-31T00:30:57;-21878.88;;;27.30;60.68
7337;BME280;54510;42.016;23.098;2023-07-31T00:33:23;-21870.19;;;26.97;60.80
7337;BME280;54510;42.016;23.098;2023-07-31T00:35:48;-21852.69;;;26.32;62.49
7337;BME280;54510;42.016;23.098;2023-07-31T00:38:14;-21855.94;;;26.44;62.64
7337;BME280;54510;42.016;23.098;2023-07-31T00:40:39;-21853.63;;;26.35;61.76
7337;BME280;54510;42.016;23.098;2023-07-31T00:43:05;-21857.69;;;26.51;62.17
7337;BME280;54510;42.016;23.098;2023-07-31T00:45:31;-21855.66;;;26.43;61.74
7337;BME280;54510;42.016;23.098;2023-07-31T00:47:58;-21853.50;;;26.35;62.96
7337;BME280;54510;42.016;23.098;2023-07-31T00:50:24;-21857.97;;;26.52;63.05
7337;BME280;54510;42.016;23.098;2023-07-31T00:52:50;-21851.72;;;26.28;64.23
7337;BME280;54510;42.016;23.098;2023-07-31T00:55:16;-21858.13;;;26.52;63.38
7337;BME280;54510;42.016;23.098;2023-07-31T00:57:42;-21851.84;;;26.29;64.41
7337;BME280;54510;42.016;23.098;2023-07-31T01:00:09;-21847.91;;;26.14;63.53
7337;BME280;54510;42.016;23.098;2023-07-31T01:02:35;-21849.28;;;26.19;63.47
7337;BME280;54510;42.016;23.098;2023-07-31T01:05:02;-21839.06;;;25.81;64.45
7337;BME280;54510;42.016;23.098;2023-07-31T01:07:44;-21831.31;;;25.52;66.13
7337;BME280;54510;42.016;23.098;2023-07-31T01:10:21;-21834.03;;;25.63;65.70
7337;BME280;54510;42.016;23.098;2023-07-31T01:12:50;-21847.91;;;26.14;64.66
7337;BME280;54510;42.016;23.098;2023-07-31T01:15:16;-21856.34;;;26.46;64.27
7337;BME280;54510;42.016;23.098;2023-07-31T01:17:43;-21848.19;;;26.15;64.50
7337;BME280;54510;42.016;23.098;2023-07-31T01:20:21;-21844.09;;;26.00;66.64
7337;BME280;54510;42.016;23.098;2023-07-31T01:23:07;-21849.13;;;26.19;67.15
7337;BME280;54510;42.016;23.098;2023-07-31T01:31:20;-21854.44;;;26.39;67.55
7337;BME280;54510;42.016;23.098;2023-07-31T01:33:50;-21856.06;;;26.45;67.27
7337;BME280;54510;42.016;23.098;2023-07-31T01:36:15;-21858.25;;;26.53;67.33
7337;BME280;54510;42.016;23.098;2023-07-31T01:38:41;-21853.09;;;26.33;67.39
7337;BME280;54510;42.016;23.098;2023-07-31T01:41:06;-21845.19;;;26.04;67.80
7337;BME280;54510;42.016;23.098;2023-07-31T01:43:31;-21842.75;;;25.95;67.44
7337;BME280;54510;42.016;23.098;2023-07-31T01:45:57;-21834.03;;;25.63;68.66
7337;BME280;54510;42.016;23.098;2023-07-31T01:48:22;-21833.50;;;25.61;68.87
7337;BME280;54510;42.016;23.098;2023-07-31T01:50:47;-21836.75;;;25.73;68.57
7337;BME280;54510;42.016;23.098;2023-07-31T01:53:13;-21833.78;;;25.62;69.67
7337;BME280;54510;42.016;23.098;2023-07-31T01:55:38;-21829.81;;;25.47;69.61
7337;BME280;54510;42.016;23.098;2023-07-31T01:58:04;-21828.88;;;25.43;69.91
7337;BME280;54510;42.016;23.098;2023-07-31T02:00:29;-21827.38;;;25.38;70.21
7337;BME280;54510;42.016;23.098;2023-07-31T02:02:54;-21830.50;;;25.49;70.13
7337;BME280;54510;42.016;23.098;2023-07-31T02:05:20;-21826.56;;;25.35;70.00
7337;BME280;54510;42.016;23.098;2023-07-31T02:07:45;-21831.47;;;25.53;69.49
7337;BME280;54510;42.016;23.098;2023-07-31T02:10:11;-21825.06;;;25.29;70.30
7337;BME280;54510;42.016;23.098;2023-07-31T02:12:36;-21829.41;;;25.45;70.17
7337;BME280;54510;42.016;23.098;2023-07-31T02:15:02;-21827.25;;;25.37;69.98
7337;BME280;54510;42.016;23.098;2023-07-31T02:17:27;-21822.63;;;25.20;70.72
7337;BME280;54510;42.016;23.098;2023-07-31T02:19:53;-21818.13;;;25.03;71.40
7337;BME280;54510;42.016;23.098;2023-07-31T02:22:19;-21812.25;;;24.82;72.48
7337;BME280;54510;42.016;23.098;2023-07-31T02:24:44;-21816.34;;;24.97;72.13
7337;BME280;54510;42.016;23.098;2023-07-31T02:27:10;-21821.53;;;25.16;71.35
7337;BME280;54510;42.016;23.098;2023-07-31T02:29:35;-21822.88;;;25.21;71.46
7337;BME280;54510;42.016;23.098;2023-07-31T02:32:01;-21829.97;;;25.47;70.25
7337;BME280;54510;42.016;23.098;2023-07-31T02:34:26;-21830.22;;;25.48;70.04
7337;BME280;54510;42.016;23.098;2023-07-31T02:36:51;-21836.91;;;25.73;68.79
7337;BME280;54510;42.016;23.098;2023-07-31T02:39:17;-21829.41;;;25.45;69.82
7337;BME280;54510;42.016;23.098;2023-07-31T02:41:42;-21824.09;;;25.26;69.82
7337;BME280;54510;42.016;23.098;2023-07-31T02:44:07;-21829.97;;;25.47;67.66
7337;BME280;54510;42.016;23.098;2023-07-31T02:46:33;-21834.19;;;25.63;67.45
7337;BME280;54510;42.016;23.098;2023-07-31T02:48:58;-21831.06;;;25.51;66.13
7337;BME280;54510;42.016;23.098;2023-07-31T02:51:25;-21829.97;;;25.47;65.78
7337;BME280;54510;42.016;23.098;2023-07-31T02:53:50;-21831.47;;;25.53;65.59
7337;BME280;54510;42.016;23.098;2023-07-31T02:56:15;-21833.78;;;25.62;66.23
7337;BME280;54510;42.016;23.098;2023-07-31T02:58:41;-21833.78;;;25.62;65.05
7337;BME280;54510;42.016;23.098;2023-07-31T03:01:06;-21830.22;;;25.48;65.05
7337;BME280;54510;42.016;23.098;2023-07-31T03:03:32;-21832.53;;;25.57;65.25
7337;BME280;54510;42.016;23.098;2023-07-31T03:05:57;-21830.22;;;25.48;65.05
7337;BME280;54510;42.016;23.098;2023-07-31T03:08:23;-21827.78;;;25.39;65.08
7337;BME280;54510;42.016;23.098;2023-07-31T03:10:48;-21826.69;;;25.35;65.21
7337;BME280;54510;42.016;23.098;2023-07-31T03:13:13;-21824.94;;;25.29;65.40
7337;BME280;54510;42.016;23.098;2023-07-31T03:15:42;-21829.00;;;25.44;65.35
7337;BME280;54510;42.016;23.098;2023-07-31T03:18:07;-21830.78;;;25.50;64.99
7337;BME280;54510;42.016;23.098;2023-07-31T03:20:33;-21832.00;;;25.55;65.12
7337;BME280;54510;42.016;23.098;2023-07-31T03:22:58;-21834.03;;;25.63;65.67
7337;BME280;54510;42.016;23.098;2023-07-31T03:25:23;-21831.59;;;25.53;65.91
7337;BME280;54510;42.016;23.098;2023-07-31T03:27:49;-21834.59;;;25.65;65.50
7337;BME280;54510;42.016;23.098;2023-07-31T03:30:14;-21835.00;;;25.66;65.38
7337;BME280;54510;42.016;23.098;2023-07-31T03:32:39;-21828.88;;;25.43;65.85
7337;BME280;54510;42.016;23.098;2023-07-31T03:35:05;-21832.69;;;25.58;65.88
7337;BME280;54510;42.016;23.098;2023-07-31T03:37:30;-21832.97;;;25.59;65.28
7337;BME280;54510;42.016;23.098;2023-07-31T03:39:56;-21833.78;;;25.62;65.08
7337;BME280;54510;42.016;23.098;2023-07-31T03:42:22;-21831.72;;;25.54;66.46
7337;BME280;54510;42.016;23.098;2023-07-31T03:44:48;-21830.09;;;25.48;66.61
7337;BME280;54510;42.016;23.098;2023-07-31T03:47:13;-21829.28;;;25.45;65.84
7337;BME280;54510;42.016;23.098;2023-07-31T03:49:39;-21832.69;;;25.58;65.26
7337;BME280;54510;42.016;23.098;2023-07-31T03:52:04;-21835.13;;;25.67;65.55
7337;BME280;54510;42.016;23.098;2023-07-31T03:54:29;-21836.38;;;25.71;66.36
7337;BME280;54510;42.016;23.098;2023-07-31T03:56:55;-21838.13;;;25.78;66.51
7337;BME280;54510;42.016;23.098;2023-07-31T03:59:20;-21838.41;;;25.79;66.18
7337;BME280;54510;42.016;23.098;2023-07-31T04:01:46;-21839.63;;;25.83;66.50
7337;BME280;54510;42.016;23.098;2023-07-31T04:04:11;-21836.50;;;25.72;66.04
7337;BME280;54510;42.016;23.098;2023-07-31T04:06:36;-21824.53;;;25.27;67.39
7337;BME280;54510;42.016;23.098;2023-07-31T04:09:02;-21832.97;;;25.59;67.45
7337;BME280;54510;42.016;23.098;2023-07-31T04:11:28;-21832.53;;;25.57;67.25
7337;BME280;54510;42.016;23.098;2023-07-31T04:13:53;-21831.59;;;25.53;67.34
7337;BME280;54510;42.016;23.098;2023-07-31T04:16:19;-21827.78;;;25.39;67.48
7337;BME280;54510;42.016;23.098;2023-07-31T04:18:44;-21837.59;;;25.76;66.73
7337;BME280;54510;42.016;23.098;2023-07-31T04:21:10;-21839.75;;;25.84;65.91
7337;BME280;54510;42.016;23.098;2023-07-31T04:23:35;-21839.75;;;25.84;64.82
7337;BME280;54510;42.016;23.098;2023-07-31T04:26:00;-21848.47;;;26.16;64.60
7337;BME280;54510;42.016;23.098;2023-07-31T04:28:26;-21856.34;;;26.46;64.17
7337;BME280;54510;42.016;23.098;2023-07-31T04:30:52;-21852.41;;;26.31;63.67
7337;BME280;54510;42.016;23.098;2023-07-31T04:33:18;-21861.38;;;26.64;62.68
7337;BME280;54510;42.016;23.098;2023-07-31T04:35:53;-21863.13;;;26.71;62.01
7337;BME280;54510;42.016;23.098;2023-07-31T04:38:20;-21859.06;;;26.56;61.58
7337;BME280;54510;42.016;23.098;2023-07-31T04:40:46;-21862.31;;;26.68;62.12
7337;BME280;54510;42.016;23.098;2023-07-31T04:43:12;-21865.03;;;26.78;61.80
7337;BME280;54510;42.016;23.098;2023-07-31T04:45:37;-21865.84;;;26.81;61.59
7337;BME280;54510;42.016;23.098;2023-07-31T04:48:02;-21857.16;;;26.49;62.54
7337;BME280;54510;42.016;23.098;2023-07-31T04:50:28;-21857.16;;;26.49;62.50
7337;BME280;54510;42.016;23.098;2023-07-31T04:52:55;-21856.63;;;26.47;62.42
7337;BME280;54510;42.016;23.098;2023-07-31T04:55:20;-21857.44;;;26.50;61.91
7337;BME280;54510;42.016;23.098;2023-07-31T04:57:46;-21861.22;;;26.64;61.87
7337;BME280;54510;42.016;23.098;2023-07-31T05:00:11;-21863.13;;;26.71;61.53
7337;BME280;54510;42.016;23.098;2023-07-31T05:02:37;-21865.16;;;26.79;61.72
7337;BME280;54510;42.016;23.098;2023-07-31T05:05:02;-21867.06;;;26.86;61.68
7337;BME280;54510;42.016;23.098;2023-07-31T05:07:28;-21871.00;;;27.00;60.86
7337;BME280;54510;42.016;23.098;2023-07-31T05:09:53;-21873.72;;;27.10;61.03
7337;BME280;54510;42.016;23.098;2023-07-31T05:12:18;-21873.47;;;27.09;60.57
7337;BME280;54510;42.016;23.098;2023-07-31T05:14:44;-21875.75;;;27.18;60.54
7337;BME280;54510;42.016;23.098;2023-07-31T05:17:09;-21874.13;;;27.12;60.81
7337;BME280;54510;42.016;23.098;2023-07-31T05:19:35;-21878.63;;;27.29;60.19
7337;BME280;54510;42.016;23.098;2023-07-31T05:22:00;-21879.84;;;27.33;59.93
7337;BME280;54510;42.016;23.098;2023-07-31T05:24:25;-21878.34;;;27.28;60.06
7337;BME280;54510;42.016;23.098;2023-07-31T05:26:51;-21880.50;;;27.36;60.15
7337;BME280;54510;42.016;23.098;2023-07-31T05:29:16;-21879.44;;;27.32;59.80
7337;BME280;54510;42.016;23.098;2023-07-31T05:31:41;-21872.38;;;27.05;60.50
7337;BME280;54510;42.016;23.098;2023-07-31T05:34:07;-21880.25;;;27.35;60.30
7337;BME280;54510;42.016;23.098;2023-07-31T05:36:32;-21881.59;;;27.40;60.32
7337;BME280;54510;42.016;23.098;2023-07-31T05:38:57;-21882.41;;;27.43;59.34
7337;BME280;54510;42.016;23.098;2023-07-31T05:41:23;-21883.50;;;27.47;59.80
7337;BME280;54510;42.016;23.098;2023-07-31T05:43:48;-21883.34;;;27.46;59.03
7337;BME280;54510;42.016;23.098;2023-07-31T05:46:14;-21878.75;;;27.29;59.36
7337;BME280;54510;42.016;23.098;2023-07-31T05:48:39;-21878.06;;;27.27;59.64
7337;BME280;54510;42.016;23.098;2023-07-31T05:51:05;-21879.16;;;27.31;59.55
7337;BME280;54510;42.016;23.098;2023-07-31T05:53:30;-21890.00;;;27.71;58.51
7337;BME280;54510;42.016;23.098;2023-07-31T05:55:56;-21892.44;;;27.80;57.87
7337;BME280;54510;42.016;23.098;2023-07-31T05:58:21;-21889.88;;;27.71;57.99
7337;BME280;54510;42.016;23.098;2023-07-31T06:00:47;-21893.13;;;27.83;57.55
7337;BME280;54510;42.016;23.098;2023-07-31T06:03:12;-21890.28;;;27.72;57.00
7337;BME280;54510;42.016;23.098;2023-07-31T06:05:37;-21894.63;;;27.88;56.62
7337;BME280;54510;42.016;23.098;2023-07-31T06:08:03;-21899.09;;;28.05;56.31
7337;BME280;54510;42.016;23.098;2023-07-31T06:10:28;-21897.47;;;27.99;55.85
7337;BME280;54510;42.016;23.098;2023-07-31T06:12:54;-21894.34;;;27.87;56.05
7337;BME280;54510;42.016;23.098;2023-07-31T06:15:19;-21904.78;;;28.26;55.36
7337;BME280;54510;42.016;23.098;2023-07-31T06:17:45;-21911.56;;;28.52;54.97
7337;BME280;54510;42.016;23.098;2023-07-31T06:20:10;-21902.63;;;28.18;54.90
7337;BME280;54510;42.016;23.098;2023-07-31T06:22:36;-21906.69;;;28.34;54.53
7337;BME280;54510;42.016;23.098;2023-07-31T06:25:02;-21915.22;;;28.65;53.85
7337;BME280;54510;42.016;23.098;2023-07-31T06:27:27;-21912.78;;;28.56;52.57
7337;BME280;54510;42.016;23.098;2023-07-31T06:29:53;-21907.34;;;28.36;52.82
7337;BME280;54510;42.016;23.098;2023-07-31T06:32:18;-21905.59;;;28.29;52.09
7337;BME280;54510;42.016;23.098;2023-07-31T06:34:43;-21910.34;;;28.47;52.29
7337;BME280;54510;42.016;23.098;2023-07-31T06:37:09;-21906.28;;;28.32;51.47
7337;BME280;54510;42.016;23.098;2023-07-31T06:39:34;-21907.22;;;28.36;50.73
7337;BME280;54510;42.016;23.098;2023-07-31T06:42:00;-21904.38;;;28.25;50.76
7337;BME280;54510;42.016;23.098;2023-07-31T06:44:25;-21921.59;;;28.89;50.24
7337;BME280;54510;42.016;23.098;2023-07-31T06:46:51;-21919.56;;;28.82;49.46
7337;BME280;54510;42.016;23.098;2023-07-31T06:49:16;-21911.97;;;28.53;49.46
7337;BME280;54510;42.016;23.098;2023-07-31T06:51:42;-21910.88;;;28.49;49.78
7337;BME280;54510;42.016;23.098;2023-07-31T06:54:08;-21914.25;;;28.62;49.36
7337;BME280;54510;42.016;23.098;2023-07-31T06:56:34;-21920.63;;;28.86;49.10
7337;BME280;54510;42.016;23.098;2023-07-31T06:58:59;-21921.84;;;28.90;48.44
7337;BME280;54510;42.016;23.098;2023-07-31T07:01:24;-21919.28;;;28.81;49.49
7337;BME280;54510;42.016;23.098;2023-07-31T07:03:51;-21917.50;;;28.74;49.32
7337;BME280;54510;42.016;23.098;2023-07-31T07:06:17;-21920.22;;;28.84;49.03
7337;BME280;54510;42.016;23.098;2023-07-31T07:08:43;-21926.03;;;29.06;49.07
7337;BME280;54510;42.016;23.098;2023-07-31T07:11:08;-21921.03;;;28.87;48.80
7337;BME280;54510;42.016;23.098;2023-07-31T07:13:34;-21926.59;;;29.08;48.25
7337;BME280;54510;42.016;23.098;2023-07-31T07:15:59;-21922.41;;;28.92;48.48
7337;BME280;54510;42.016;23.098;2023-07-31T07:18:25;-21931.31;;;29.26;47.72
7337;BME280;54510;42.016;23.098;2023-07-31T07:20:51;-21932.69;;;29.31;47.40
7337;BME280;54510;42.016;23.098;2023-07-31T07:23:17;-21923.19;;;28.95;48.55
7337;BME280;54510;42.016;23.098;2023-07-31T07:25:43;-21932.53;;;29.30;47.56
7337;BME280;54510;42.016;23.098;2023-07-31T07:28:09;-21934.97;;;29.39;47.50
7337;BME280;54510;42.016;23.098;2023-07-31T07:30:35;-21933.75;;;29.35;47.47
7337;BME280;54510;42.016;23.098;2023-07-31T07:33:00;-21938.09;;;29.51;46.83
7337;BME280;54510;42.016;23.098;2023-07-31T07:35:26;-21936.59;;;29.45;47.14
7337;BME280;54510;42.016;23.098;2023-07-31T07:37:51;-21939.72;;;29.57;46.77
7337;BME280;54510;42.016;23.098;2023-07-31T07:40:17;-21929.56;;;29.19;46.97
7337;BME280;54510;42.016;23.098;2023-07-31T07:42:42;-21935.91;;;29.43;47.07
7337;BME280;54510;42.016;23.098;2023-07-31T07:45:08;-21931.72;;;29.27;46.73
7337;BME280;54510;42.016;23.098;2023-07-31T07:47:33;-21934.97;;;29.39;46.84
7337;BME280;54510;42.016;23.098;2023-07-31T07:49:59;-21939.03;;;29.55;46.50
7337;BME280;54510;42.016;23.098;2023-07-31T07:52:24;-21935.38;;;29.41;46.36
7337;BME280;54510;42.016;23.098;2023-07-31T07:54:50;-21940.25;;;29.59;45.91
7337;BME280;54510;42.016;23.098;2023-07-31T07:57:15;-21937.94;;;29.51;46.18
7337;BME280;54510;42.016;23.098;2023-07-31T07:59:41;-21940.13;;;29.59;46.22
7337;BME280;54510;42.016;23.098;2023-07-31T08:02:07;-21935.50;;;29.41;46.16
7337;BME280;54510;42.016;23.098;2023-07-31T08:04:32;-21944.72;;;29.76;45.66
7337;BME280;54510;42.016;23.098;2023-07-31T08:06:58;-21953.91;;;30.10;45.12
7337;BME280;54510;42.016;23.098;2023-07-31T08:09:23;-21958.09;;;30.26;44.17
7337;BME280;54510;42.016;23.098;2023-07-31T08:11:49;-21959.31;;;30.31;44.04
7337;BME280;54510;42.016;23.098;2023-07-31T08:14:14;-21956.88;;;30.21;43.33
7337;BME280;54510;42.016;23.098;2023-07-31T08:16:39;-21962.28;;;30.42;43.30
7337;BME280;54510;42.016;23.098;2023-07-31T08:19:05;-21962.28;;;30.42;43.41
7337;BME280;54510;42.016;23.098;2023-07-31T08:21:31;-21955.25;;;30.15;43.06
7337;BME280;54510;42.016;23.098;2023-07-31T08:23:57;-21966.31;;;30.57;42.94
7337;BME280;54510;42.016;23.098;2023-07-31T08:26:22;-21967.28;;;30.60;41.73
7337;BME280;54510;42.016;23.098;2023-07-31T08:28:48;-21972.25;;;30.79;41.24
7337;BME280;54510;42.016;23.098;2023-07-31T08:31:13;-21977.25;;;30.98;41.12
7337;BME280;54510;42.016;23.098;2023-07-31T08:33:39;-21971.31;;;30.76;40.65
7337;BME280;54510;42.016;23.098;2023-07-31T08:36:05;-21970.66;;;30.73;40.47
7337;BME280;54510;42.016;23.098;2023-07-31T08:38:31;-21974.56;;;30.88;40.13
7337;BME280;54510;42.016;23.098;2023-07-31T08:40:57;-21962.69;;;30.43;40.64
7337;BME280;54510;42.016;23.098;2023-07-31T08:43:25;-21964.03;;;30.48;40.69
7337;BME280;54510;42.016;23.098;2023-07-31T08:45:51;-21966.31;;;30.57;40.22
7337;BME280;54510;42.016;23.098;2023-07-31T08:48:17;-21976.19;;;30.94;40.41
7337;BME280;54510;42.016;23.098;2023-07-31T08:50:43;-21979.41;;;31.06;40.62
7337;BME280;54510;42.016;23.098;2023-07-31T08:53:08;-21982.53;;;31.18;39.44
7337;BME280;54510;42.016;23.098;2023-07-31T08:55:35;-21982.25;;;31.17;39.08
7337;BME280;54510;42.016;23.098;2023-07-31T08:58:03;-21987.91;;;31.38;39.04
7337;BME280;54510;42.016;23.098;2023-07-31T09:00:29;-21984.00;;;31.23;39.55
7337;BME280;54510;42.016;23.098;2023-07-31T09:03:00;-21983.72;;;31.22;39.61
7337;BME280;54510;42.016;23.098;2023-07-31T09:05:31;-21971.19;;;30.75;39.55
7337;BME280;54510;42.016;23.098;2023-07-31T09:07:57;-21983.06;;;31.20;38.87
7337;BME280;54510;42.016;23.098;2023-07-31T09:10:23;-21985.75;;;31.30;39.09
7337;BME280;54510;42.016;23.098;2023-07-31T09:12:51;-21979.56;;;31.07;39.04
7337;BME280;54510;42.016;23.098;2023-07-31T09:15:16;-21981.72;;;31.15;39.08
7337;BME280;54510;42.016;23.098;2023-07-31T09:17:42;-21976.59;;;30.95;39.23
7337;BME280;54510;42.016;23.098;2023-07-31T09:20:20;-21980.63;;;31.11;39.43
7337;BME280;54510;42.016;23.098;2023-07-31T09:22:48;-21987.25;;;31.35;38.92
7337;BME280;54510;42.016;23.098;2023-07-31T09:25:18;-21983.59;;;31.22;38.31
7337;BME280;54510;42.016;23.098;2023-07-31T09:28:04;-21987.63;;;31.37;37.94
7337;BME280;54510;42.016;23.098;2023-07-31T09:30:30;-21977.78;;;31.00;38.28
7337;BME280;54510;42.016;23.098;2023-07-31T09:33:06;-21986.28;;;31.32;38.42
7337;BME280;54510;42.016;23.098;2023-07-31T09:35:34;-21980.63;;;31.11;39.00
7337;BME280;54510;42.016;23.098;2023-07-31T09:40:39;-21990.47;;;31.48;37.93
7337;BME280;54510;42.016;23.098;2023-07-31T09:43:18;-21988.03;;;31.38;38.51
7337;BME280;54510;42.016;23.098;2023-07-31T09:45:45;-21992.50;;;31.55;38.77
7337;BME280;54510;42.016;23.098;2023-07-31T09:48:13;-21995.19;;;31.65;38.37
7337;BME280;54510;42.016;23.098;2023-07-31T09:50:42;-21990.47;;;31.48;38.01
7337;BME280;54510;42.016;23.098;2023-07-31T09:53:08;-21999.09;;;31.80;37.35
7337;BME280;54510;42.016;23.098;2023-07-31T09:55:35;-21997.09;;;31.72;36.24
7337;BME280;54510;42.016;23.098;2023-07-31T09:58:04;-21995.72;;;31.67;36.74
7337;BME280;54510;42.016;23.098;2023-07-31T10:00:30;-21995.72;;;31.67;35.20
7337;BME280;54510;42.016;23.098;2023-07-31T10:03:01;-22000.31;;;31.85;36.25
7337;BME280;54510;42.016;23.098;2023-07-31T10:05:39;-22003.94;;;31.98;36.55
7337;BME280;54510;42.016;23.098;2023-07-31T10:08:08;-22000.44;;;31.85;37.07
7337;BME280;54510;42.016;23.098;2023-07-31T10:10:36;-21994.53;;;31.63;36.95
7337;BME280;54510;42.016;23.098;2023-07-31T10:13:03;-21997.22;;;31.73;36.25
7337;BME280;54510;42.016;23.098;2023-07-31T10:15:30;-22006.38;;;32.07;35.89
7337;BME280;54510;42.016;23.098;2023-07-31T10:17:57;-22010.81;;;32.24;35.61
7337;BME280;54510;42.016;23.098;2023-07-31T10:20:23;-22000.44;;;31.85;36.95
7337;BME280;54510;42.016;23.098;2023-07-31T10:22:51;-22004.88;;;32.02;36.76
7337;BME280;54510;42.016;23.098;2023-07-31T10:25:18;-22013.09;;;32.33;35.56
7337;BME280;54510;42.016;23.098;2023-07-31T10:27:47;-22004.09;;;31.99;34.96
7337;BME280;54510;42.016;23.098;2023-07-31T10:30:15;-22012.44;;;32.30;34.78
7337;BME280;54510;42.016;23.098;2023-07-31T10:32:43;-22011.63;;;32.27;35.43
7337;BME280;54510;42.016;23.098;2023-07-31T10:35:09;-22005.03;;;32.02;35.10
7337;BME280;54510;42.016;23.098;2023-07-31T10:37:42;-22012.28;;;32.30;35.89
7337;BME280;54510;42.016;23.098;2023-07-31T10:40:15;-22019.44;;;32.56;35.07
7337;BME280;54510;42.016;23.098;2023-07-31T10:42:57;-22011.75;;;32.28;34.37
7337;BME280;54510;42.016;23.098;2023-07-31T10:48:16;-22024.13;;;32.74;34.75
7337;BME280;54510;42.016;23.098;2023-07-31T10:50:48;-22025.22;;;32.78;34.35
7337;BME280;54510;42.016;23.098;2023-07-31T10:53:30;-22014.72;;;32.39;34.15
7337;BME280;54510;42.016;23.098;2023-07-31T10:55:59;-22019.16;;;32.55;33.42
7337;BME280;54510;42.016;23.098;2023-07-31T10:58:25;-22017.53;;;32.49;33.18
7337;BME280;54510;42.016;23.098;2023-07-31T11:00:55;-22023.19;;;32.71;32.68
7337;BME280;54510;42.016;23.098;2023-07-31T11:03:25;-22026.69;;;32.84;32.58
7337;BME280;54510;42.016;23.098;2023-07-31T11:08:28;-22017.41;;;32.49;32.58
7337;BME280;54510;42.016;23.098;2023-07-31T11:13:32;-22030.31;;;32.98;32.35
7337;BME280;54510;42.016;23.098;2023-07-31T11:15:57;-22035.56;;;33.17;32.02
7337;BME280;54510;42.016;23.098;2023-07-31T11:18:26;-22021.44;;;32.64;31.95
7337;BME280;54510;42.016;23.098;2023-07-31T11:20:52;-22018.09;;;32.51;31.23
7337;BME280;54510;42.016;23.098;2023-07-31T11:23:19;-22026.97;;;32.85;31.21
7337;BME280;54510;42.016;23.098;2023-07-31T11:25:44;-22023.75;;;32.73;30.91
7337;BME280;54510;42.016;23.098;2023-07-31T11:28:12;-22034.22;;;33.12;31.26
7337;BME280;54510;42.016;23.098;2023-07-31T11:30:39;-22032.88;;;33.07;31.51
7337;BME280;54510;42.016;23.098;2023-07-31T11:33:06;-22039.34;;;33.31;31.93
7337;BME280;54510;42.016;23.098;2023-07-31T11:35:33;-22037.19;;;33.23;32.36
7337;BME280;54510;42.016;23.098;2023-07-31T11:37:59;-22039.59;;;33.32;31.51
7337;BME280;54510;42.016;23.098;2023-07-31T11:40:25;-22041.63;;;33.40;31.45
7337;BME280;54510;42.016;23.098;2023-07-31T11:42:58;-22041.88;;;33.41;30.41
7337;BME280;54510;42.016;23.098;2023-07-31T11:45:27;-22038.41;;;33.28;30.24
7337;BME280;54510;42.016;23.098;2023-07-31T11:47:56;-22041.63;;;33.40;30.13
7337;BME280;54510;42.016;23.098;2023-07-31T11:50:23;-22050.47;;;33.74;29.34
7337;BME280;54510;42.016;23.098;2023-07-31T11:52:53;-22047.13;;;33.61;29.63
7337;BME280;54510;42.016;23.098;2023-07-31T11:55:20;-22041.75;;;33.41;29.55
7337;BME280;54510;42.016;23.098;2023-07-31T11:57:46;-22031.53;;;33.02;29.79
7337;BME280;54510;42.016;23.098;2023-07-31T12:00:12;-22045.50;;;33.55;29.93
7337;BME280;54510;42.016;23.098;2023-07-31T12:02:39;-22046.06;;;33.57;29.66
7337;BME280;54510;42.016;23.098;2023-07-31T12:05:10;-22047.00;;;33.60;29.18
7337;BME280;54510;42.016;23.098;2023-07-31T12:07:52;-22045.38;;;33.54;29.68
7337;BME280;54510;42.016;23.098;2023-07-31T12:10:26;-22050.47;;;33.74;29.15
7337;BME280;54510;42.016;23.098;2023-07-31T12:13:08;-22064.84;;;34.28;28.89
7337;BME280;54510;42.016;23.098;2023-07-31T12:15:43;-22058.94;;;34.05;28.50
7337;BME280;54510;42.016;23.098;2023-07-31T12:18:16;-22048.47;;;33.66;29.16
7337;BME280;54510;42.016;23.098;2023-07-31T12:20:46;-22059.47;;;34.07;28.70
7337;BME280;54510;42.016;23.098;2023-07-31T12:23:22;-22063.91;;;34.24;28.06
7337;BME280;54510;42.016;23.098;2023-07-31T12:31:04;-22079.31;;;34.82;27.20
7337;BME280;54510;42.016;23.098;2023-07-31T12:33:34;-22089.50;;;35.21;26.66
7337;BME280;54510;42.016;23.098;2023-07-31T12:36:01;-22084.16;;;35.01;26.75
7337;BME280;54510;42.016;23.098;2023-07-31T12:38:27;-22084.41;;;35.02;26.67
7337;BME280;54510;42.016;23.098;2023-07-31T12:40:53;-22090.84;;;35.26;26.64
7337;BME280;54510;42.016;23.098;2023-07-31T12:43:18;-22089.66;;;35.21;26.64
7337;BME280;54510;42.016;23.098;2023-07-31T12:45:44;-22096.22;;;35.46;26.25
7337;BME280;54510;42.016;23.098;2023-07-31T12:48:09;-22083.34;;;34.98;26.26
7337;BME280;54510;42.016;23.098;2023-07-31T12:50:35;-22094.47;;;35.40;25.74
7337;BME280;54510;42.016;23.098;2023-07-31T12:53:02;-22107.59;;;35.89;25.55
7337;BME280;54510;42.016;23.098;2023-07-31T12:55:32;-22099.97;;;35.60;25.73
7337;BME280;54510;42.016;23.098;2023-07-31T12:58:02;-22092.72;;;35.33;26.17
7337;BME280;54510;42.016;23.098;2023-07-31T13:00:28;-22099.16;;;35.57;25.11
7337;BME280;54510;42.016;23.098;2023-07-31T13:02:53;-22100.22;;;35.61;24.98
7337;BME280;54510;42.016;23.098;2023-07-31T13:05:20;-22116.41;;;36.23;24.93
7337;BME280;54510;42.016;23.098;2023-07-31T13:07:46;-22113.34;;;36.11;24.92
7337;BME280;54510;42.016;23.098;2023-07-31T13:10:11;-22115.34;;;36.19;24.52